Time;durP1;ratioP1;P1;durP2;ratioP2;P2;SDS_P1;SDS_P2;PMS_P1;PMS_P2;Temp;Humidity;BMP_temperature;BMP_pressure;BME280_temperature;BME280_humidity;BME280_pressure;Samples;Min_cycle;Max_cycle;Signal;HPM_P1;HPM_P2
2022/08/14 00:02:16;;;;;;;15.63;14.13;;;;;;;16.39;100.00;92358.81;5042108;28;20210;-71
2022/08/14 00:04:41;;;;;;;15.20;13.97;;;;;;;16.52;100.00;92348.06;5042566;28;20224;-71
2022/08/14 00:07:08;;;;;;;15.97;14.37;;;;;;;16.49;100.00;92355.84;5038693;28;20254;-71
2022/08/14 00:09:34;;;;;;;15.60;14.00;;;;;;;16.43;100.00;92354.44;5039975;28;20230;-71
2022/08/14 00:12:00;;;;;;;15.03;13.77;;;;;;;16.37;100.00;92359.16;5037327;28;20211;-71
2022/08/14 00:14:27;;;;;;;15.20;13.90;;;;;;;16.33;100.00;92352.19;5037193;28;20222;-71
2022/08/14 00:16:52;;;;;;;16.07;14.57;;;;;;;16.39;100.00;92351.69;5028951;28;20183;-71
2022/08/14 00:19:17;;;;;;;14.80;13.57;;;;;;;16.45;100.00;92353.06;5032788;28;20257;-71
2022/08/14 00:21:43;;;;;;;15.33;14.03;;;;;;;16.46;100.00;92349.34;5038698;28;20183;-70
2022/08/14 00:24:08;;;;;;;15.40;14.20;;;;;;;16.37;100.00;92335.44;5039091;28;20260;-71
2022/08/14 00:26:34;;;;;;;15.60;14.30;;;;;;;16.31;100.00;92328.78;5038162;28;20195;-71
2022/08/14 00:28:59;;;;;;;15.47;14.00;;;;;;;16.47;100.00;92356.16;5040402;28;20261;-72
2022/08/14 00:31:26;;;;;;;18.67;15.03;;;;;;;16.39;100.00;92338.50;5039295;28;20214;-71
2022/08/14 00:33:52;;;;;;;16.07;14.63;;;;;;;16.49;100.00;92346.06;5039445;28;20235;-71
2022/08/14 00:36:18;;;;;;;14.90;13.60;;;;;;;16.41;100.00;92335.53;5039789;28;20739;-71
2022/08/14 00:38:43;;;;;;;16.20;14.70;;;;;;;16.40;100.00;92328.75;5039077;28;20232;-70
2022/08/14 00:41:09;;;;;;;15.97;14.40;;;;;;;16.38;100.00;92344.09;5040282;28;20185;-71
2022/08/14 00:43:35;;;;;;;14.30;13.10;;;;;;;16.27;100.00;92340.28;5037623;28;20206;-70
2022/08/14 00:46:06;;;;;;;15.83;14.53;;;;;;;16.36;100.00;92338.38;5039768;28;20187;-71
2022/08/14 00:48:33;;;;;;;15.47;13.87;;;;;;;16.43;100.00;92339.41;5038369;28;20182;-71
2022/08/14 00:50:59;;;;;;;16.50;14.67;;;;;;;16.38;100.00;92341.47;5041348;28;20278;-72
2022/08/14 00:53:24;;;;;;;14.50;13.30;;;;;;;16.25;100.00;92340.59;5037014;28;20183;-71
2022/08/14 00:55:55;;;;;;;16.70;15.17;;;;;;;16.28;100.00;92339.97;5040437;28;20192;-71
2022/08/14 00:58:30;;;;;;;15.27;13.97;;;;;;;16.36;100.00;92330.50;5040071;28;20217;-74
2022/08/14 01:00:58;;;;;;;15.70;14.30;;;;;;;16.47;100.00;92335.06;5039282;28;20198;-71
2022/08/14 01:03:24;;;;;;;15.30;14.00;;;;;;;16.40;100.00;92326.88;5037159;28;20204;-70
2022/08/14 01:05:51;;;;;;;16.77;15.17;;;;;;;16.49;100.00;92316.31;5037833;28;20191;-71
2022/08/14 01:08:22;;;;;;;16.93;15.23;;;;;;;16.49;100.00;92311.03;5037194;28;20232;-70
2022/08/14 01:10:51;;;;;;;17.97;16.03;;;;;;;16.21;100.00;92310.72;5038328;28;20238;-70
2022/08/14 01:13:25;;;;;;;17.37;15.43;;;;;;;16.22;100.00;92307.00;5038906;28;20201;-71
2022/08/14 01:15:54;;;;;;;17.57;15.87;;;;;;;16.34;100.00;92312.38;5037332;28;20221;-71
2022/08/14 01:21:07;;;;;;;15.87;14.27;;;;;;;16.30;100.00;92308.81;5036245;28;20229;-72
2022/08/14 01:23:37;;;;;;;15.50;14.03;;;;;;;16.27;100.00;92317.34;5037932;28;20246;-71
2022/08/14 01:26:03;;;;;;;17.80;13.37;;;;;;;16.26;100.00;92302.66;5040983;28;20183;-71
2022/08/14 01:28:30;;;;;;;14.77;13.30;;;;;;;16.24;100.00;92304.03;5040175;28;20236;-72
2022/08/14 01:30:57;;;;;;;15.57;14.27;;;;;;;16.30;100.00;92302.75;5037196;28;20226;-71
2022/08/14 01:33:30;;;;;;;17.10;15.23;;;;;;;16.25;100.00;92306.34;5038370;28;20190;-71
2022/08/14 01:36:00;;;;;;;17.27;15.57;;;;;;;16.23;100.00;92303.28;5037536;28;20210;-71
2022/08/14 01:38:33;;;;;;;16.80;15.20;;;;;;;16.33;100.00;92308.16;5037598;28;20259;-71
2022/08/14 01:41:06;;;;;;;16.67;15.17;;;;;;;16.41;100.00;92309.19;5036976;28;20187;-71
2022/08/14 01:43:41;;;;;;;18.60;16.47;;;;;;;16.36;100.00;92315.44;5039227;28;20206;-72
2022/08/14 01:46:10;;;;;;;18.80;16.83;;;;;;;16.29;100.00;92307.28;5034975;28;20241;-71
2022/08/14 01:48:37;;;;;;;20.23;17.40;;;;;;;16.33;100.00;92308.16;5038108;28;20199;-71
2022/08/14 01:51:02;;;;;;;19.20;16.13;;;;;;;16.33;100.00;92310.81;5037179;28;20253;-71
2022/08/14 01:53:30;;;;;;;16.87;15.17;;;;;;;16.18;100.00;92303.47;5038372;28;20183;-71
2022/08/14 01:55:58;;;;;;;17.57;15.70;;;;;;;16.22;100.00;92296.47;5036567;28;20187;-71
2022/08/14 01:58:26;;;;;;;18.70;16.60;;;;;;;16.14;100.00;92289.38;5038167;28;20198;-71
2022/08/14 02:00:55;;;;;;;18.53;16.63;;;;;;;15.91;100.00;92267.84;5039884;28;20190;-71
2022/08/14 02:03:29;;;;;;;17.73;15.93;;;;;;;16.02;100.00;92297.22;5038373;28;20217;-72
2022/08/14 02:05:58;;;;;;;19.53;15.97;;;;;;;16.04;100.00;92287.13;5037587;28;20198;-70
2022/08/14 02:08:26;;;;;;;18.90;16.43;;;;;;;15.94;100.00;92298.81;5035470;28;20218;-71
2022/08/14 02:11:15;;;;;;;17.13;15.47;;;;;;;16.04;100.00;92301.09;5034477;28;20218;-71
2022/08/14 02:13:38;;;;;;;16.43;14.83;;;;;;;15.95;100.00;92292.44;5033167;28;20207;-71
2022/08/14 02:16:04;;;;;;;16.57;15.07;;;;;;;16.06;100.00;92298.13;5015766;28;20183;-70
2022/08/14 02:18:29;;;;;;;16.20;14.40;;;;;;;16.11;100.00;92300.56;5014656;28;20230;-71
2022/08/14 02:20:55;;;;;;;18.33;16.60;;;;;;;15.57;100.00;92296.19;5017908;28;20270;-72
2022/08/14 02:23:20;;;;;;;21.17;16.80;;;;;;;15.93;100.00;92293.84;5019414;28;20191;-74
2022/08/14 02:25:46;;;;;;;18.27;16.37;;;;;;;15.90;100.00;92274.22;5020441;28;20179;-69
2022/08/14 02:28:11;;;;;;;21.30;17.40;;;;;;;15.92;100.00;92279.16;5016893;28;20195;-71
2022/08/14 02:30:39;;;;;;;26.43;19.03;;;;;;;16.16;100.00;92279.31;5016932;28;20226;-71
2022/08/14 02:33:06;;;;;;;31.67;21.07;;;;;;;16.03;100.00;92264.53;5018006;28;20196;-71
2022/08/14 02:35:31;;;;;;;29.27;20.33;;;;;;;16.20;100.00;92282.88;5015680;28;20250;-72
2022/08/14 02:37:57;;;;;;;28.87;20.60;;;;;;;16.19;100.00;92283.94;5014851;28;20191;-70
2022/08/14 02:40:23;;;;;;;20.97;17.83;;;;;;;16.03;100.00;92246.09;5033288;28;20249;-71
2022/08/14 02:42:49;;;;;;;23.33;19.30;;;;;;;16.22;100.00;92291.19;5040507;28;20190;-71
2022/08/14 02:45:14;;;;;;;21.77;17.17;;;;;;;16.21;100.00;92287.03;5036314;28;20229;-70
2022/08/14 02:47:39;;;;;;;28.17;18.50;;;;;;;16.29;100.00;92295.97;5035784;28;20261;-70
2022/08/14 02:50:06;;;;;;;25.70;19.73;;;;;;;16.35;100.00;92290.19;5037002;28;20231;-71
2022/08/14 02:52:32;;;;;;;31.00;20.83;;;;;;;16.23;100.00;92286.72;5037570;28;20214;-71
2022/08/14 02:54:58;;;;;;;33.10;22.00;;;;;;;16.08;100.00;92282.00;5040282;28;20274;-71
2022/08/14 02:57:25;;;;;;;41.77;22.30;;;;;;;16.14;100.00;92283.38;5038833;28;20949;-72
2022/08/14 02:59:51;;;;;;;36.13;21.53;;;;;;;16.15;100.00;92274.38;5040741;28;20222;-71
2022/08/14 03:02:16;;;;;;;43.13;23.10;;;;;;;16.37;100.00;92280.09;5040128;28;20203;-71
2022/08/14 03:04:42;;;;;;;41.40;23.70;;;;;;;16.14;100.00;92260.41;5043368;28;20253;-71
2022/08/14 03:07:08;;;;;;;41.33;23.90;;;;;;;16.16;100.00;92289.06;5040236;28;20210;-71
2022/08/14 03:09:38;;;;;;;40.73;22.33;;;;;;;16.24;100.00;92291.66;5041663;28;20218;-71
2022/08/14 03:12:05;;;;;;;41.10;24.93;;;;;;;16.29;100.00;92283.56;5040236;28;20272;-71
2022/08/14 03:14:34;;;;;;;35.23;22.37;;;;;;;16.34;100.00;92285.25;5041320;28;20227;-71
2022/08/14 03:17:00;;;;;;;37.73;25.00;;;;;;;16.19;100.00;92272.66;5040330;28;20183;-71
2022/08/14 03:19:25;;;;;;;33.83;24.00;;;;;;;16.29;100.00;92278.31;5039174;28;20256;-70
2022/08/14 03:21:50;;;;;;;40.27;23.43;;;;;;;16.36;100.00;92275.16;5039864;28;20183;-71
2022/08/14 03:24:16;;;;;;;35.87;23.80;;;;;;;16.43;100.00;92285.94;5042320;28;20222;-71
2022/08/14 03:26:44;;;;;;;39.80;23.83;;;;;;;16.39;100.00;92285.06;5040766;28;20182;-70
2022/08/14 03:29:12;;;;;;;34.70;23.10;;;;;;;16.39;100.00;92291.06;5039228;28;20238;-71
2022/08/14 03:31:39;;;;;;;41.33;23.10;;;;;;;16.35;100.00;92286.78;5039911;28;20206;-71
2022/08/14 03:34:09;;;;;;;33.40;22.93;;;;;;;16.36;100.00;92291.72;5040061;28;20253;-73
2022/08/14 03:36:35;;;;;;;31.50;21.37;;;;;;;16.32;100.00;92290.81;5042271;28;20182;-71
2022/08/14 03:39:02;;;;;;;30.73;20.77;;;;;;;16.43;100.00;92296.47;5041100;28;20230;-71
2022/08/14 03:41:28;;;;;;;31.97;22.10;;;;;;;16.48;100.00;92304.22;5040822;28;20212;-70
2022/08/14 03:44:00;;;;;;;31.23;22.00;;;;;;;16.56;100.00;92301.50;5041288;28;20234;-71
2022/08/14 03:46:27;;;;;;;35.83;23.57;;;;;;;16.26;100.00;92307.91;5039629;28;20190;-71
2022/08/14 03:48:56;;;;;;;33.40;23.93;;;;;;;16.36;100.00;92302.25;5039654;28;20213;-71
2022/08/14 03:51:26;;;;;;;34.33;22.87;;;;;;;16.46;100.00;92306.41;5040247;28;20219;-71
2022/08/14 03:53:52;;;;;;;37.10;23.03;;;;;;;16.47;100.00;92316.63;5043421;28;20232;-71
2022/08/14 03:56:17;;;;;;;28.67;21.87;;;;;;;16.52;100.00;92311.16;5040550;28;20187;-71
2022/08/14 03:58:49;;;;;;;30.83;22.10;;;;;;;16.59;100.00;92315.94;5038511;28;20234;-71
2022/08/14 04:01:18;;;;;;;25.73;20.47;;;;;;;16.59;100.00;92308.78;5040941;28;20186;-71
2022/08/14 04:03:44;;;;;;;28.80;20.23;;;;;;;16.47;100.00;92297.44;5041143;28;20227;-71
2022/08/14 04:06:10;;;;;;;24.33;18.10;;;;;;;16.59;100.00;92303.50;5037285;28;20194;-69
2022/08/14 04:08:37;;;;;;;22.50;19.07;;;;;;;16.62;100.00;92310.00;5040274;28;20190;-71
2022/08/14 04:11:03;;;;;;;25.30;19.53;;;;;;;16.56;100.00;92319.97;5041372;28;20213;-70
2022/08/14 04:13:30;;;;;;;29.77;21.93;;;;;;;16.46;100.00;92328.28;5039011;28;20599;-71
2022/08/14 04:15:56;;;;;;;31.67;23.10;;;;;;;16.64;100.00;92310.47;5040626;28;20177;-71
2022/08/14 04:18:21;;;;;;;26.93;22.30;;;;;;;16.66;100.00;92313.53;5036183;28;20198;-72
2022/08/14 04:20:47;;;;;;;28.23;22.53;;;;;;;16.79;100.00;92309.88;5040264;28;20182;-72
2022/08/14 04:23:12;;;;;;;29.60;22.33;;;;;;;16.69;100.00;92311.03;5038577;28;20187;-71
2022/08/14 04:25:39;;;;;;;31.00;23.63;;;;;;;16.75;100.00;92309.75;5042452;28;20368;-71
2022/08/14 04:28:06;;;;;;;28.80;21.17;;;;;;;16.77;100.00;92318.09;5039488;28;20174;-71
2022/08/14 04:30:37;;;;;;;23.33;19.83;;;;;;;16.70;100.00;92299.38;5038636;28;20242;-71
2022/08/14 04:33:07;;;;;;;27.00;21.63;;;;;;;16.82;100.00;92320.56;5038309;28;20183;-71
2022/08/14 04:35:34;;;;;;;22.13;18.87;;;;;;;16.84;100.00;92301.78;5038759;28;20214;-72
2022/08/14 04:43:37;;;;;;;23.73;19.70;;;;;;;16.92;100.00;92319.38;5038897;28;20192;-71
2022/08/14 04:46:12;;;;;;;19.37;17.43;;;;;;;16.92;100.00;92309.59;5036084;28;20208;-71
2022/08/14 04:48:38;;;;;;;20.30;18.37;;;;;;;16.84;100.00;92305.16;5038208;28;20183;-70
2022/08/14 04:51:05;;;;;;;19.73;17.77;;;;;;;16.99;100.00;92311.72;5037132;28;20222;-71
2022/08/14 04:53:32;;;;;;;20.80;17.00;;;;;;;16.93;100.00;92289.28;5038969;28;20186;-71
2022/08/14 04:55:58;;;;;;;18.47;16.47;;;;;;;17.08;100.00;92291.28;5041398;28;20195;-71
2022/08/14 04:58:29;;;;;;;18.73;17.07;;;;;;;17.23;100.00;92307.28;5040642;28;20190;-71
2022/08/14 05:00:57;;;;;;;19.33;17.50;;;;;;;17.10;100.00;92304.94;5037219;28;21271;-72
2022/08/14 05:03:28;;;;;;;18.63;16.73;;;;;;;17.19;100.00;92298.50;5037726;28;20175;-71
2022/08/14 05:05:57;;;;;;;19.67;17.80;;;;;;;17.31;100.00;92316.97;5036747;28;20186;-71
2022/08/14 05:08:22;;;;;;;19.63;17.53;;;;;;;17.21;100.00;92303.44;5036131;28;20229;-71
2022/08/14 05:10:51;;;;;;;22.03;19.83;;;;;;;17.23;100.00;92309.16;5036879;28;20226;-71
2022/08/14 05:13:23;;;;;;;20.00;18.00;;;;;;;17.38;99.64;92306.69;5041470;28;20210;-72
2022/08/14 05:15:51;;;;;;;20.23;18.23;;;;;;;17.49;100.00;92312.31;5036588;28;20229;-71
2022/08/14 05:18:19;;;;;;;19.53;17.53;;;;;;;17.53;100.00;92316.63;5040134;28;20215;-71
2022/08/14 05:20:47;;;;;;;20.07;18.13;;;;;;;17.57;100.00;92319.38;5036869;28;20242;-70
2022/08/14 05:23:14;;;;;;;21.13;17.00;;;;;;;17.33;100.00;92317.44;5039835;28;20183;-71
2022/08/14 05:25:41;;;;;;;17.97;16.27;;;;;;;17.47;100.00;92312.66;5035542;28;20223;-71
2022/08/14 05:28:08;;;;;;;19.43;17.43;;;;;;;17.48;100.00;92321.31;5038788;28;20186;-71
2022/08/14 05:30:34;;;;;;;19.40;17.50;;;;;;;17.55;100.00;92319.72;5040189;28;20244;-71
2022/08/14 05:33:00;;;;;;;20.23;18.07;;;;;;;17.55;100.00;92319.72;5036822;28;20218;-70
2022/08/14 05:35:25;;;;;;;21.03;18.93;;;;;;;17.66;100.00;92324.56;5036760;28;20217;-71
2022/08/14 05:37:52;;;;;;;19.43;17.53;;;;;;;17.74;100.00;92324.47;5037479;28;20184;-71
2022/08/14 05:40:17;;;;;;;20.00;17.97;;;;;;;17.78;100.00;92320.06;5038189;28;20250;-71
2022/08/14 05:42:43;;;;;;;20.67;18.57;;;;;;;17.66;100.00;92314.00;5037409;28;20187;-71
2022/08/14 05:45:08;;;;;;;20.90;18.83;;;;;;;17.45;98.56;92322.75;5038296;28;20291;-71
2022/08/14 05:47:38;;;;;;;19.63;17.67;;;;;;;17.64;97.72;92324.88;5038384;28;20198;-72
2022/08/14 05:50:09;;;;;;;20.13;17.57;;;;;;;18.02;95.35;92324.59;5039667;28;20240;-71
2022/08/14 05:52:35;;;;;;;20.13;18.13;;;;;;;18.02;94.49;92309.53;5034385;28;20229;-71
2022/08/14 05:55:00;;;;;;;19.80;17.90;;;;;;;18.03;95.42;92318.19;5038456;28;20225;-71
2022/08/14 05:57:26;;;;;;;20.27;18.27;;;;;;;17.94;96.19;92313.03;5035467;28;20179;-72
2022/08/14 05:59:51;;;;;;;20.83;18.53;;;;;;;18.20;95.02;92315.31;5038936;28;20258;-71
2022/08/14 06:02:16;;;;;;;20.90;17.77;;;;;;;18.14;95.74;92312.16;5039335;28;20197;-71
2022/08/14 06:04:47;;;;;;;22.37;17.47;;;;;;;18.27;93.61;92331.41;5040577;28;20229;-71
2022/08/14 06:07:15;;;;;;;21.70;19.17;;;;;;;18.18;93.61;92333.41;5038017;28;20225;-69
2022/08/14 06:09:41;;;;;;;21.37;19.17;;;;;;;18.07;94.23;92327.75;5037779;28;20490;-72
2022/08/14 06:12:07;;;;;;;21.83;19.53;;;;;;;18.07;94.19;92332.31;5036475;28;20215;-71
2022/08/14 06:14:33;;;;;;;24.50;19.23;;;;;;;18.05;94.13;92323.94;5040042;28;20228;-71
2022/08/14 06:16:58;;;;;;;23.93;19.93;;;;;;;18.15;93.44;92328.78;5035419;28;20199;-71
2022/08/14 06:19:23;;;;;;;22.30;19.07;;;;;;;18.10;95.27;92331.63;5035780;28;20287;-71
2022/08/14 06:21:49;;;;;;;22.70;19.40;;;;;;;18.16;94.82;92330.31;5036826;28;20200;-71
2022/08/14 06:24:15;;;;;;;22.60;20.30;;;;;;;18.21;95.05;92322.91;5037049;28;20230;-71
2022/08/14 06:26:40;;;;;;;21.13;18.87;;;;;;;18.41;95.17;92331.88;5035291;28;20252;-71
2022/08/14 06:29:05;;;;;;;22.10;19.77;;;;;;;18.48;94.33;92337.34;5038298;28;20255;-71
2022/08/14 06:31:31;;;;;;;24.23;20.87;;;;;;;18.51;94.75;92337.47;5040486;28;20728;-70
2022/08/14 06:33:56;;;;;;;22.83;19.43;;;;;;;18.60;93.02;92340.00;5041335;28;20233;-72
2022/08/14 06:36:22;;;;;;;23.57;20.50;;;;;;;18.46;93.72;92339.56;5039987;28;20266;-71
2022/08/14 06:38:47;;;;;;;22.60;20.20;;;;;;;18.31;94.90;92345.50;5042766;28;20242;-70
2022/08/14 06:41:12;;;;;;;21.97;19.57;;;;;;;18.18;96.63;92344.72;5041697;28;20199;-71
2022/08/14 06:43:38;;;;;;;25.50;19.97;;;;;;;18.22;96.56;92340.34;5043606;28;20243;-70
2022/08/14 06:46:03;;;;;;;23.67;21.17;;;;;;;18.12;96.65;92339.97;5042484;28;20238;-71
2022/08/14 06:48:29;;;;;;;22.83;20.43;;;;;;;18.14;96.22;92340.44;5041712;28;20243;-71
2022/08/14 06:50:55;;;;;;;33.77;21.83;;;;;;;18.14;96.43;92345.72;5040230;28;20188;-71
2022/08/14 06:53:21;;;;;;;23.80;21.27;;;;;;;18.00;98.30;92342.63;5042183;28;20191;-73
2022/08/14 06:55:47;;;;;;;25.00;21.63;;;;;;;17.88;98.84;92324.94;5042662;28;20203;-70
2022/08/14 06:58:14;;;;;;;27.07;20.53;;;;;;;18.11;97.35;92354.31;5043277;28;20236;-70
2022/08/14 07:05:44;;;;;;;25.67;21.70;;;;;;;17.97;99.13;92345.94;5041112;28;20225;-72
2022/08/14 07:06:12;;;;;;;23.13;20.03;;;;;;;17.87;100.00;92349.03;5040678;28;20257;-70
2022/08/14 07:08:37;;;;;;;24.70;21.77;;;;;;;17.97;100.00;92352.00;5041225;28;20199;-71
2022/08/14 07:11:03;;;;;;;26.40;20.70;;;;;;;18.29;97.48;92348.47;5041029;28;20216;-71
2022/08/14 07:13:28;;;;;;;25.30;20.90;;;;;;;18.20;97.95;92347.03;5041494;28;20219;-69
2022/08/14 07:15:55;;;;;;;29.33;23.20;;;;;;;18.12;98.96;92347.91;5040821;28;20184;-72
2022/08/14 07:18:25;;;;;;;27.27;23.57;;;;;;;18.22;98.97;92345.63;5043186;28;20191;-72
2022/08/14 07:20:52;;;;;;;30.97;22.73;;;;;;;18.20;99.79;92344.38;5040106;28;20208;-71
2022/08/14 07:23:17;;;;;;;27.53;22.87;;;;;;;18.26;97.38;92338.56;5042820;28;20199;-70
2022/08/14 07:25:44;;;;;;;28.73;22.67;;;;;;;18.16;98.72;92346.16;5041242;28;20231;-69
2022/08/14 07:28:22;;;;;;;29.57;22.70;;;;;;;18.13;99.57;92344.19;5039706;28;20284;-70
2022/08/14 07:30:49;;;;;;;28.60;21.90;;;;;;;18.13;98.91;92352.13;5043291;28;20202;-69
2022/08/14 07:33:15;;;;;;;28.63;23.73;;;;;;;18.01;100.00;92352.13;5039144;28;20199;-71
2022/08/14 07:35:40;;;;;;;27.27;21.10;;;;;;;18.06;100.00;92336.03;5041544;28;20226;-70
2022/08/14 07:38:07;;;;;;;28.50;23.23;;;;;;;18.32;99.50;92352.34;5039809;28;20205;-71
2022/08/14 07:40:33;;;;;;;27.33;22.80;;;;;;;18.44;99.13;92352.34;5038209;28;20287;-71
2022/08/14 07:43:00;;;;;;;28.97;22.27;;;;;;;18.64;96.49;92346.16;5037854;28;20213;-71
2022/08/14 07:45:26;;;;;;;24.57;21.73;;;;;;;18.72;95.65;92347.91;5040155;28;20938;-72
2022/08/14 07:47:55;;;;;;;23.67;20.50;;;;;;;18.56;96.83;92347.03;5037137;28;20191;-71
2022/08/14 07:50:20;;;;;;;23.80;20.00;;;;;;;18.73;94.51;92360.78;5041390;28;20224;-70
2022/08/14 07:52:48;;;;;;;21.67;18.97;;;;;;;18.52;95.38;92359.41;5038912;28;20218;-71
2022/08/14 07:55:15;;;;;;;28.57;18.70;;;;;;;18.43;94.67;92348.16;5040637;28;20218;-71
2022/08/14 07:57:46;;;;;;;19.33;17.33;;;;;;;18.47;93.56;92356.97;5039618;28;20197;-72
2022/08/14 08:00:14;;;;;;;21.03;18.70;;;;;;;18.28;95.59;92356.72;5040006;28;20226;-71
2022/08/14 08:02:43;;;;;;;20.00;17.90;;;;;;;18.29;96.25;92358.28;5035762;28;20191;-71
2022/08/14 08:05:10;;;;;;;21.17;18.23;;;;;;;18.33;95.14;92351.22;5040928;28;20264;-69
2022/08/14 08:07:36;;;;;;;22.27;19.87;;;;;;;18.32;95.24;92361.00;5038429;28;20227;-71
2022/08/14 08:10:32;;;;;;;21.63;19.43;;;;;;;18.31;95.84;92359.47;5041333;28;20243;-71
2022/08/14 08:13:12;;;;;;;21.03;18.93;;;;;;;18.30;96.54;92362.47;5039973;28;20251;-71
2022/08/14 08:15:40;;;;;;;21.37;18.50;;;;;;;18.20;98.23;92354.97;5037926;28;20290;-71
2022/08/14 08:18:08;;;;;;;23.57;21.07;;;;;;;18.29;96.93;92355.66;5037606;28;20219;-71
2022/08/14 08:20:45;;;;;;;21.73;19.33;;;;;;;18.27;97.69;92348.03;5038526;28;20223;-72
2022/08/14 08:23:12;;;;;;;21.93;19.57;;;;;;;18.44;97.52;92349.69;5037036;28;20200;-72
2022/08/14 08:25:39;;;;;;;24.00;21.43;;;;;;;18.44;95.12;92347.84;5036750;28;20287;-71
2022/08/14 08:28:15;;;;;;;23.60;19.80;;;;;;;18.43;97.32;92350.78;5040046;28;21072;-71
2022/08/14 08:30:55;;;;;;;22.97;20.40;;;;;;;18.66;95.96;92346.59;5040299;28;20220;-70
2022/08/14 08:33:22;;;;;;;22.80;20.43;;;;;;;18.82;93.47;92347.41;5037394;28;20194;-73
2022/08/14 08:35:48;;;;;;;21.97;19.60;;;;;;;18.63;94.74;92349.91;5039384;28;20200;-72
2022/08/14 08:38:19;;;;;;;23.33;19.43;;;;;;;18.51;97.11;92347.25;5040844;28;20207;-71
2022/08/14 08:40:47;;;;;;;15.53;14.27;;;;;;;18.33;96.23;92357.28;5038085;28;20257;-70
2022/08/14 08:43:28;;;;;;;14.87;13.60;;;;;;;18.34;95.52;92344.81;5040621;28;20187;-70
2022/08/14 08:46:07;;;;;;;12.80;11.93;;;;;;;18.54;89.72;92351.88;5039897;28;20210;-71
2022/08/14 08:48:50;;;;;;;12.53;11.63;;;;;;;18.55;90.06;92361.38;5039236;28;20239;-72
2022/08/14 08:51:39;;;;;;;12.93;11.93;;;;;;;18.45;91.88;92351.22;5037721;28;20215;-71
2022/08/14 08:54:06;;;;;;;12.83;11.83;;;;;;;18.42;91.71;92354.53;5038281;28;20269;-71
2022/08/14 08:56:35;;;;;;;12.93;11.97;;;;;;;18.51;90.74;92353.31;5039700;28;20172;-71
2022/08/14 08:59:02;;;;;;;12.30;11.50;;;;;;;18.68;90.14;92349.66;5034927;28;20231;-71
2022/08/14 09:01:29;;;;;;;13.10;12.00;;;;;;;18.74;88.40;92348.34;5038987;28;20193;-71
2022/08/14 09:04:04;;;;;;;13.20;12.03;;;;;;;18.71;89.49;92341.03;5036003;28;20731;-71
2022/08/14 09:06:30;;;;;;;12.87;11.90;;;;;;;18.94;86.22;92334.19;5038835;28;20244;-71
2022/08/14 09:08:55;;;;;;;13.57;12.47;;;;;;;18.42;87.93;92339.47;5039941;28;20214;-71
2022/08/14 09:11:22;;;;;;;14.67;13.47;;;;;;;18.25;88.83;92337.03;5038894;28;20203;-71
2022/08/14 09:13:51;;;;;;;14.07;12.77;;;;;;;19.01;87.76;92337.78;5039052;28;20300;-72
2022/08/14 09:16:20;;;;;;;14.43;13.03;;;;;;;19.48;85.54;92340.59;5041892;28;20200;-72
2022/08/14 09:18:46;;;;;;;13.33;12.33;;;;;;;20.02;84.59;92338.16;5036372;28;20236;-71
2022/08/14 09:21:12;;;;;;;14.37;12.87;;;;;;;20.16;82.23;92344.59;5039773;28;20184;-71
2022/08/14 09:23:37;;;;;;;13.90;12.80;;;;;;;20.84;79.46;92330.94;5037131;28;20194;-71
2022/08/14 09:26:03;;;;;;;13.27;12.17;;;;;;;20.93;78.11;92320.91;5040276;28;20228;-70
2022/08/14 09:28:28;;;;;;;13.70;12.50;;;;;;;20.80;79.84;92332.75;5038444;28;20182;-71
2022/08/14 09:30:56;;;;;;;15.82;14.30;;;;;;;21.43;77.53;92328.75;5037418;28;20257;-72
2022/08/14 09:33:27;;;;;;;15.02;13.82;;;;;;;20.86;77.07;92328.72;5041369;28;20188;-73
2022/08/14 09:35:58;;;;;;;14.55;13.18;;;;;;;22.11;73.63;92326.94;5036722;28;20202;-71
2022/08/14 09:38:42;;;;;;;14.77;13.55;;;;;;;22.13;71.34;92341.38;5038027;28;20190;-71
2022/08/14 09:41:38;;;;;;;15.02;13.52;;;;;;;21.62;74.92;92339.34;5037314;28;20596;-71
2022/08/14 09:44:28;;;;;;;15.30;13.93;;;;;;;21.70;73.37;92333.00;5040148;28;20262;-73
2022/08/14 09:46:55;;;;;;;13.98;12.75;;;;;;;21.69;72.50;92331.50;5038632;28;20236;-72
2022/08/14 09:49:32;;;;;;;15.48;14.10;;;;;;;21.64;73.56;92339.75;5035393;28;20221;-71
2022/08/14 09:52:06;;;;;;;15.05;13.57;;;;;;;21.38;73.74;92334.34;5040974;28;20220;-72
2022/08/14 09:54:44;;;;;;;14.45;13.25;;;;;;;21.34;73.65;92330.84;5035902;28;20242;-71
2022/08/14 09:57:22;;;;;;;15.07;13.63;;;;;;;20.88;76.55;92331.78;5038249;28;20200;-71
2022/08/14 09:59:48;;;;;;;15.63;14.13;;;;;;;20.49;77.54;92323.78;5039650;28;20219;-71
2022/08/14 10:02:22;;;;;;;15.90;14.27;;;;;;;21.10;74.85;92329.25;5038784;28;20193;-70
2022/08/14 10:05:05;;;;;;;14.52;13.38;;;;;;;21.02;76.17;92330.22;5038158;28;20239;-71
2022/08/14 10:07:32;;;;;;;14.10;12.98;;;;;;;21.04;74.79;92321.91;5034332;28;20218;-71
2022/08/14 10:09:59;;;;;;;16.50;14.68;;;;;;;21.20;75.53;92333.25;5037929;28;20248;-71
2022/08/14 10:12:26;;;;;;;16.75;15.18;;;;;;;21.05;73.81;92329.53;5037871;28;20245;-70
2022/08/14 10:14:51;;;;;;;16.63;13.75;;;;;;;20.66;77.73;92323.38;5037069;28;20225;-71
2022/08/14 10:17:25;;;;;;;13.40;12.20;;;;;;;20.44;78.43;92325.91;5037125;28;20301;-71
2022/08/14 10:19:51;;;;;;;13.90;12.80;;;;;;;20.49;78.15;92329.06;5040218;28;20249;-71
2022/08/14 10:22:27;;;;;;;15.07;13.07;;;;;;;20.38;78.66;92327.28;5034958;28;20203;-70
2022/08/14 10:24:52;;;;;;;14.40;13.10;;;;;;;20.22;79.55;92332.59;5036780;28;20239;-71
2022/08/14 10:27:22;;;;;;;15.30;13.85;;;;;;;20.32;79.21;92318.84;5036600;28;20187;-71
2022/08/14 10:29:59;;;;;;;15.38;13.93;;;;;;;20.31;79.50;92333.19;5036902;28;20259;-71
2022/08/14 10:32:25;;;;;;;14.43;13.32;;;;;;;20.09;80.75;92325.06;5038173;28;20213;-71
2022/08/14 10:35:06;;;;;;;14.60;13.40;;;;;;;20.19;81.71;92325.34;5034551;28;20241;-71
2022/08/14 10:37:39;;;;;;;14.57;13.40;;;;;;;20.40;79.50;92330.38;5038257;28;20205;-71
2022/08/14 10:40:06;;;;;;;14.52;13.13;;;;;;;20.21;80.58;92322.34;5037106;28;20220;-71
2022/08/14 10:42:42;;;;;;;14.82;12.85;;;;;;;20.65;78.36;92311.22;5037338;28;20221;-71
2022/08/14 10:45:19;;;;;;;14.43;13.23;;;;;;;20.98;76.77;92310.03;5039230;28;20251;-71
2022/08/14 10:47:46;;;;;;;15.00;13.70;;;;;;;20.83;76.86;92306.28;5039228;28;20876;-71
2022/08/14 10:50:13;;;;;;;14.00;12.90;;;;;;;20.28;79.83;92302.06;5036172;28;20223;-71
2022/08/14 10:52:41;;;;;;;16.10;14.65;;;;;;;20.04;80.35;92298.81;5035535;28;20339;-71
2022/08/14 10:55:14;;;;;;;14.98;13.85;;;;;;;20.43;79.03;92303.16;5036538;28;20352;-71
2022/08/14 10:57:49;;;;;;;15.25;13.68;;;;;;;20.04;80.86;92296.94;5039476;28;20238;-71
2022/08/14 11:00:17;;;;;;;14.23;13.13;;;;;;;20.06;81.47;92278.81;5039506;28;20244;-71
2022/08/14 11:02:43;;;;;;;13.80;12.60;;;;;;;20.51;78.42;92268.47;5036932;28;20193;-71
2022/08/14 11:05:17;;;;;;;13.53;12.43;;;;;;;19.95;80.14;92279.69;5037482;28;20228;-69
2022/08/14 11:07:54;;;;;;;13.45;12.38;;;;;;;20.03;80.66;92278.75;5037071;28;20253;-71
2022/08/14 11:10:23;;;;;;;12.07;11.20;;;;;;;20.82;80.37;92280.09;5036848;28;20221;-70
2022/08/14 11:12:55;;;;;;;12.32;11.43;;;;;;;20.72;78.69;92284.06;5038024;28;20244;-69
2022/08/14 11:15:24;;;;;;;12.13;11.13;;;;;;;20.36;77.95;92279.91;5033348;28;20247;-71
2022/08/14 11:17:50;;;;;;;11.05;10.35;;;;;;;20.04;79.72;92275.75;5037528;28;20197;-71
2022/08/14 11:20:21;;;;;;;12.20;11.32;;;;;;;19.72;78.93;92274.22;5039721;28;20361;-71
2022/08/14 11:22:51;;;;;;;11.88;11.10;;;;;;;20.00;78.38;92264.28;5043003;28;20198;-70
2022/08/14 11:25:17;;;;;;;13.65;12.48;;;;;;;20.59;77.84;92272.06;5040564;28;20277;-71
2022/08/14 11:27:45;;;;;;;12.25;11.35;;;;;;;21.09;76.57;92269.28;5040992;28;20192;-70
2022/08/14 11:30:15;;;;;;;11.48;10.70;;;;;;;21.18;74.00;92242.53;5041479;28;20234;-69
2022/08/14 11:32:49;;;;;;;11.38;10.57;;;;;;;21.20;73.61;92262.28;5041068;28;20210;-71